createdAt,value
2022-08-05T00:01:28.112Z,28.70
2022-08-05T00:04:18.517Z,28.70
2022-08-05T00:07:27.075Z,28.70
2022-08-05T00:10:18.800Z,28.70
2022-08-05T00:13:08.157Z,28.70
2022-08-05T00:16:10.850Z,28.60
2022-08-05T00:19:01.866Z,28.60
2022-08-05T00:21:51.430Z,28.60
2022-08-05T00:24:42.202Z,28.60
2022-08-05T00:27:36.138Z,28.50
2022-08-05T00:30:31.944Z,28.50
2022-08-05T00:34:55.795Z,28.50
2022-08-05T00:37:12.424Z,28.50
2022-08-05T00:39:57.264Z,28.50
2022-08-05T00:42:49.983Z,28.50
2022-08-05T00:45:43.778Z,28.40
2022-08-05T00:48:33.417Z,28.40
2022-08-05T00:51:50.956Z,28.40
2022-08-05T00:54:41.447Z,28.40
2022-08-05T00:57:55.213Z,28.40
2022-08-05T01:00:44.566Z,28.30
2022-08-05T01:03:34.272Z,28.30
2022-08-05T01:06:32.406Z,28.30
2022-08-05T01:09:22.305Z,28.30
2022-08-05T01:12:18.444Z,28.30
2022-08-05T01:15:35.127Z,28.30
2022-08-05T01:18:27.591Z,28.30
2022-08-05T01:21:50.665Z,28.20
2022-08-05T01:25:01.615Z,28.20
2022-08-05T01:28:15.034Z,28.20
2022-08-05T01:31:12.042Z,28.20
2022-08-05T01:34:10.251Z,28.20
2022-08-05T01:37:25.021Z,28.10
2022-08-05T01:40:17.929Z,28.10
2022-08-05T01:43:22.298Z,28.10
2022-08-05T01:46:16.363Z,28.00
2022-08-05T01:49:22.965Z,28.00
2022-08-05T01:52:18.070Z,28.00
2022-08-05T01:55:13.296Z,28.00
2022-08-05T01:58:29.804Z,27.90
2022-08-05T02:01:23.322Z,27.90
2022-08-05T02:04:18.055Z,27.90
2022-08-05T02:07:07.542Z,27.90
2022-08-05T02:10:00.317Z,27.80
2022-08-05T02:13:01.187Z,27.80
2022-08-05T02:15:55.671Z,27.80
2022-08-05T02:18:51.706Z,27.70
2022-08-05T02:21:50.941Z,27.70
2022-08-05T02:24:47.125Z,27.70
2022-08-05T02:27:58.177Z,27.60
2022-08-05T02:30:57.092Z,27.60
2022-08-05T02:33:57.346Z,27.60
2022-08-05T02:36:52.960Z,27.50
2022-08-05T02:39:47.730Z,27.50
2022-08-05T02:42:41.247Z,27.50
2022-08-05T02:45:52.189Z,27.40
2022-08-05T02:48:43.548Z,27.40
2022-08-05T02:52:04.454Z,27.40
2022-08-05T02:54:50.707Z,27.30
2022-08-05T02:58:11.119Z,27.30
2022-08-05T03:00:54.403Z,27.30
2022-08-05T03:04:03.360Z,27.30
2022-08-05T03:06:59.408Z,27.30
2022-08-05T03:09:49.788Z,27.20
2022-08-05T03:12:41.827Z,27.20
2022-08-05T03:15:32.558Z,27.20
2022-08-05T03:18:30.131Z,27.20
2022-08-05T03:21:20.181Z,27.20
2022-08-05T03:24:13.399Z,27.20
2022-08-05T03:27:06.699Z,27.20
2022-08-05T03:30:07.384Z,27.20
2022-08-05T03:32:58.338Z,27.20
2022-08-05T03:35:49.926Z,27.20
2022-08-05T03:38:52.487Z,27.20
2022-08-05T03:41:46.737Z,27.20
2022-08-05T03:44:36.445Z,27.20
2022-08-05T03:47:30.515Z,27.20
2022-08-05T03:50:25.789Z,27.20
2022-08-05T03:55:50.797Z,27.20
2022-08-05T03:56:41.158Z,27.20
2022-08-05T03:59:46.960Z,27.20
2022-08-05T04:02:57.641Z,27.20
2022-08-05T04:05:48.613Z,27.20
2022-08-05T04:08:39.082Z,27.20
2022-08-05T04:11:47.586Z,27.20
2022-08-05T04:14:40.211Z,27.30
2022-08-05T04:17:36.440Z,27.30
2022-08-05T04:20:41.232Z,27.30
2022-08-05T04:24:05.344Z,27.30
2022-08-05T04:26:40.817Z,27.30
2022-08-05T04:29:30.631Z,27.40
2022-08-05T04:32:31.090Z,27.40
2022-08-05T04:35:22.576Z,27.40
2022-08-05T04:38:12.764Z,27.50
2022-08-05T04:41:05.117Z,27.60
2022-08-05T04:43:56.678Z,27.90
2022-08-05T04:46:46.955Z,28.20
2022-08-05T04:50:02.721Z,28.60
2022-08-05T04:52:49.320Z,29.10
2022-08-05T04:56:15.306Z,29.70
2022-08-05T04:58:49.725Z,30.20
2022-08-05T05:02:07.569Z,30.70
2022-08-05T05:04:51.357Z,31.20
2022-08-05T05:07:45.826Z,31.60
2022-08-05T05:10:56.267Z,32.00
2022-08-05T05:13:46.015Z,32.40
2022-08-05T05:16:37.974Z,32.80
2022-08-05T05:19:36.531Z,33.20
2022-08-05T05:22:30.430Z,33.60
2022-08-05T05:25:19.846Z,34.10
2022-08-05T05:28:22.024Z,34.60
2022-08-05T05:31:14.496Z,35.10
2022-08-05T05:34:04.673Z,35.60
2022-08-05T05:36:54.667Z,36.10
2022-08-05T05:39:46.331Z,36.60
2022-08-05T05:42:36.900Z,37.00
2022-08-05T05:45:27.050Z,37.50
2022-08-05T05:48:19.126Z,38.10
2022-08-05T05:51:22.564Z,38.60
2022-08-05T05:54:12.417Z,39.10
2022-08-05T05:57:03.208Z,39.60
2022-08-05T06:00:03.203Z,40.00
2022-08-05T06:03:40.815Z,40.40
2022-08-05T06:06:27.691Z,40.70
2022-08-05T06:09:25.858Z,41.10
2022-08-05T06:12:27.610Z,41.50
2022-08-05T06:15:23.976Z,41.70
2022-08-05T06:18:14.291Z,42.00
2022-08-05T06:21:05.644Z,42.20
2022-08-05T06:24:11.365Z,42.30
2022-08-05T06:27:01.962Z,42.50
2022-08-05T06:30:02.823Z,42.60
2022-08-05T06:32:57.056Z,42.80
2022-08-05T06:36:07.113Z,42.90
2022-08-05T06:38:56.073Z,43.00
2022-08-05T06:41:45.832Z,43.20
2022-08-05T06:44:35.501Z,43.40
2022-08-05T06:48:11.473Z,43.40
2022-08-05T06:50:35.681Z,43.20
2022-08-05T06:53:28.647Z,43.20
2022-08-05T06:56:26.103Z,43.30
2022-08-05T06:59:16.477Z,43.50
2022-08-05T07:02:06.624Z,43.70
2022-08-05T07:04:57.488Z,43.90
2022-08-05T07:07:49.126Z,44.20
2022-08-05T07:10:38.604Z,44.40
2022-08-05T07:13:57.881Z,44.60
2022-08-05T07:18:00.931Z,44.80
2022-08-05T07:20:32.125Z,45.00
2022-08-05T07:23:12.997Z,45.40
2022-08-05T07:26:18.394Z,45.60
2022-08-05T07:29:12.424Z,45.90
2022-08-05T07:32:03.913Z,46.10
2022-08-05T07:34:57.729Z,46.40
2022-08-05T07:37:48.990Z,46.60
2022-08-05T07:40:44.479Z,46.80
2022-08-05T07:43:34.114Z,46.90
2022-08-05T07:46:26.068Z,47.00
2022-08-05T07:49:15.841Z,47.00
2022-08-05T07:52:07.553Z,47.10
2022-08-05T07:55:00.404Z,47.00
2022-08-05T07:58:02.481Z,47.10
2022-08-05T08:00:52.997Z,47.10
2022-08-05T08:03:44.523Z,47.20
2022-08-05T08:06:34.402Z,47.30
2022-08-05T08:09:24.894Z,47.10
2022-08-05T08:12:35.259Z,47.20
2022-08-05T08:16:33.736Z,47.20
2022-08-05T08:18:39.561Z,47.20
2022-08-05T08:21:29.120Z,47.30
2022-08-05T08:24:18.513Z,47.30
2022-08-05T08:27:09.768Z,47.30
2022-08-05T08:30:05.466Z,47.30
2022-08-05T08:33:13.901Z,47.40
2022-08-05T08:36:38.105Z,47.60
2022-08-05T08:39:14.959Z,47.90
2022-08-05T08:42:15.213Z,48.20
2022-08-05T08:45:26.263Z,48.60
2022-08-05T08:48:36.100Z,48.90
2022-08-05T08:52:03.313Z,49.00
2022-08-05T08:54:47.637Z,49.10
2022-08-05T08:57:48.128Z,49.10
2022-08-05T09:00:41.743Z,49.00
2022-08-05T09:03:40.341Z,48.80
2022-08-05T09:06:36.293Z,48.50
2022-08-05T09:09:32.547Z,48.30
2022-08-05T09:12:27.770Z,48.20
2022-08-05T09:15:17.638Z,48.30
2022-08-05T09:18:13.376Z,48.50
2022-08-05T09:21:02.970Z,48.70
2022-08-05T09:24:08.353Z,49.10
2022-08-05T09:27:00.345Z,49.40
2022-08-05T09:29:52.745Z,49.80
2022-08-05T09:32:46.779Z,50.20
2022-08-05T09:35:37.979Z,50.40
2022-08-05T09:38:29.575Z,50.80
2022-08-05T09:41:19.265Z,51.00
2022-08-05T09:44:08.728Z,51.30
2022-08-05T09:47:13.940Z,51.60
2022-08-05T09:50:06.718Z,51.80
2022-08-05T09:53:00.466Z,52.00
2022-08-05T09:56:04.057Z,52.20
2022-08-05T09:59:02.187Z,52.30
2022-08-05T10:01:57.896Z,52.40
2022-08-05T10:04:48.445Z,52.60
2022-08-05T10:08:36.586Z,52.70
2022-08-05T10:11:07.780Z,52.80
2022-08-05T10:13:59.931Z,53.00
2022-08-05T10:16:53.015Z,53.10
2022-08-05T10:20:02.750Z,53.10
2022-08-05T10:22:54.109Z,53.10
2022-08-05T10:25:43.829Z,53.20
2022-08-05T10:28:36.518Z,53.30
2022-08-05T10:33:01.706Z,53.30
2022-08-05T10:34:36.877Z,53.20
2022-08-05T10:37:40.263Z,53.10
2022-08-05T10:40:40.628Z,53.10
2022-08-05T10:43:50.588Z,53.20
2022-08-05T10:46:53.938Z,53.30
2022-08-05T10:50:33.009Z,53.30
2022-08-05T10:53:39.369Z,53.40
2022-08-05T10:56:45.111Z,53.60
2022-08-05T11:00:04.362Z,53.70
2022-08-05T11:03:25.402Z,53.70
2022-08-05T11:06:17.648Z,53.70
2022-08-05T11:09:32.344Z,53.60
2022-08-05T11:12:50.914Z,53.30
2022-08-05T11:16:00.476Z,53.00
2022-08-05T11:20:10.334Z,52.60
2022-08-05T11:22:43.970Z,52.10
2022-08-05T11:26:05.371Z,51.50
2022-08-05T11:28:55.537Z,51.00
2022-08-05T11:31:56.930Z,50.30
2022-08-05T11:34:54.050Z,49.60
2022-08-05T11:38:29.585Z,49.10
2022-08-05T11:41:56.169Z,48.40
2022-08-05T11:44:53.288Z,47.70
2022-08-05T11:47:48.761Z,47.00
2022-08-05T11:50:41.833Z,46.50
2022-08-05T11:53:40.751Z,45.90
2022-08-05T11:56:50.452Z,45.50
2022-08-05T11:59:49.730Z,45.10
2022-08-05T12:02:40.188Z,44.70
2022-08-05T12:05:39.927Z,44.30
2022-08-05T12:08:33.012Z,44.00
2022-08-05T12:11:24.293Z,43.70
2022-08-05T12:14:17.950Z,43.40
2022-08-05T12:18:00.534Z,43.20
2022-08-05T12:20:33.735Z,43.00
2022-08-05T12:23:24.983Z,42.80
2022-08-05T12:26:17.024Z,42.80
2022-08-05T12:29:09.601Z,42.80
2022-08-05T12:32:02.465Z,42.70
2022-08-05T12:34:54.126Z,42.60
2022-08-05T12:37:43.794Z,42.40
2022-08-05T12:40:34.688Z,42.20
2022-08-05T12:43:24.916Z,42.10
2022-08-05T12:46:29.448Z,41.90
2022-08-05T12:49:20.589Z,41.70
2022-08-05T12:52:23.865Z,41.40
2022-08-05T12:55:22.322Z,41.30
2022-08-05T12:58:39.058Z,41.10
2022-08-05T13:02:00.690Z,41.00
2022-08-05T13:04:54.550Z,40.90
2022-08-05T13:08:02.039Z,40.90
2022-08-05T13:10:53.462Z,40.90
2022-08-05T13:14:06.300Z,40.90
2022-08-05T13:16:57.342Z,40.90
2022-08-05T13:20:04.541Z,40.80
2022-08-05T13:22:56.437Z,40.70
2022-08-05T13:25:51.854Z,40.60
2022-08-05T13:28:49.939Z,40.50
2022-08-05T13:32:05.061Z,40.40
2022-08-05T13:34:54.994Z,40.20
2022-08-05T13:37:44.876Z,40.00
2022-08-05T13:40:51.968Z,39.90
2022-08-05T13:43:44.613Z,39.80
2022-08-05T13:47:02.532Z,39.70
2022-08-05T13:49:54.984Z,39.70
2022-08-05T13:52:44.457Z,39.60
2022-08-05T13:55:41.095Z,39.60
2022-08-05T13:58:32.355Z,39.70
2022-08-05T14:01:27.447Z,39.60
2022-08-05T14:04:49.899Z,39.50
2022-08-05T14:08:00.303Z,39.50
2022-08-05T14:10:52.850Z,39.40
2022-08-05T14:13:49.192Z,39.40
2022-08-05T14:16:44.922Z,39.30
2022-08-05T14:19:54.183Z,39.30
2022-08-05T14:22:50.265Z,39.30
2022-08-05T14:25:45.150Z,39.20
2022-08-05T14:28:35.614Z,39.10
2022-08-05T14:31:54.432Z,39.10
2022-08-05T14:34:35.210Z,38.90
2022-08-05T14:37:44.820Z,38.80
2022-08-05T14:40:36.556Z,38.70
2022-08-05T14:43:59.296Z,38.60
2022-08-05T14:46:36.052Z,38.50
2022-08-05T14:49:25.503Z,38.40
2022-08-05T14:52:52.464Z,38.30
2022-08-05T14:55:42.698Z,38.20
2022-08-05T14:58:32.545Z,38.10
2022-08-05T15:01:48.414Z,38.00
2022-08-05T15:04:31.708Z,38.00
2022-08-05T15:08:08.946Z,37.90
2022-08-05T15:10:32.574Z,37.80
2022-08-05T15:13:28.562Z,37.80
2022-08-05T15:16:31.630Z,37.80
2022-08-05T15:19:23.711Z,37.70
2022-08-05T15:22:14.119Z,37.60
2022-08-05T15:25:11.952Z,37.60
2022-08-05T15:28:05.677Z,37.60
2022-08-05T15:30:55.629Z,37.70
2022-08-05T15:34:05.292Z,37.70
2022-08-05T15:36:54.349Z,37.80
2022-08-05T15:40:59.096Z,37.70
2022-08-05T15:43:01.355Z,37.70
2022-08-05T15:46:03.851Z,37.70
2022-08-05T15:48:58.595Z,37.60
2022-08-05T15:52:14.019Z,37.50
2022-08-05T15:54:59.575Z,37.40
2022-08-05T15:57:49.379Z,37.30
2022-08-05T16:00:50.910Z,37.20
2022-08-05T16:03:51.135Z,37.10
2022-08-05T16:06:41.414Z,36.90
2022-08-05T16:09:30.954Z,36.80
2022-08-05T16:12:22.128Z,36.70
2022-08-05T16:15:18.476Z,36.60
2022-08-05T16:18:09.117Z,36.50
2022-08-05T16:21:04.319Z,36.40
2022-08-05T16:23:55.436Z,36.30
2022-08-05T16:26:55.913Z,36.10
2022-08-05T16:29:51.032Z,36.00
2022-08-05T16:32:40.870Z,36.00
2022-08-05T16:35:42.501Z,35.80
2022-08-05T16:38:35.902Z,35.70
2022-08-05T16:42:14.198Z,35.60
2022-08-05T16:44:35.121Z,35.40
2022-08-05T16:47:35.754Z,35.30
2022-08-05T16:50:30.464Z,35.20
2022-08-05T16:53:23.291Z,35.10
2022-08-05T16:56:23.781Z,35.00
2022-08-05T16:59:14.659Z,34.90
2022-08-05T17:02:06.439Z,34.80
2022-08-05T17:04:58.951Z,34.70
2022-08-05T17:07:54.494Z,34.60
2022-08-05T17:10:44.558Z,34.50
2022-08-05T17:13:37.812Z,34.40
2022-08-05T17:16:33.302Z,34.30
2022-08-05T17:19:24.134Z,34.20
2022-08-05T17:22:24.942Z,34.10
2022-08-05T17:25:33.470Z,34.10
2022-08-05T17:28:23.673Z,34.00
2022-08-05T17:31:24.557Z,33.90
2022-08-05T17:34:32.483Z,33.90
2022-08-05T17:37:41.656Z,33.70
2022-08-05T17:40:33.582Z,33.60
2022-08-05T17:43:47.025Z,33.40
2022-08-05T17:46:33.743Z,33.20
2022-08-05T17:49:23.810Z,33.00
2022-08-05T17:52:16.708Z,32.70
2022-08-05T17:55:07.936Z,32.50
2022-08-05T17:57:58.503Z,32.30
2022-08-05T18:00:51.050Z,32.10
2022-08-05T18:03:59.290Z,31.90
2022-08-05T18:06:52.244Z,31.70
2022-08-05T18:09:58.976Z,31.50
2022-08-05T18:12:50.027Z,31.30
2022-08-05T18:15:39.413Z,31.10
2022-08-05T18:18:30.505Z,30.90
2022-08-05T18:21:25.881Z,30.80
2022-08-05T18:24:15.585Z,30.60
2022-08-05T18:27:06.016Z,30.40
2022-08-05T18:30:02.454Z,30.30
2022-08-05T18:33:00.221Z,30.20
2022-08-05T18:36:03.650Z,30.00
2022-08-05T18:38:57.983Z,29.90
2022-08-05T18:41:57.518Z,29.80
2022-08-05T18:44:56.434Z,29.70
2022-08-05T18:47:50.141Z,29.70
2022-08-05T18:51:01.662Z,29.60
2022-08-05T18:54:10.325Z,29.50
2022-08-05T18:57:01.321Z,29.40
2022-08-05T19:00:02.181Z,29.30
2022-08-05T19:02:53.235Z,29.20
2022-08-05T19:06:13.041Z,29.10
2022-08-05T19:08:53.084Z,29.00
2022-08-05T19:11:59.868Z,28.90
2022-08-05T19:15:00.821Z,28.80
2022-08-05T19:18:08.865Z,28.80
2022-08-05T19:21:00.521Z,28.70
2022-08-05T19:24:05.166Z,28.60
2022-08-05T19:26:59.142Z,28.60
2022-08-05T19:29:53.477Z,28.50
2022-08-05T19:32:42.973Z,28.50
2022-08-05T19:35:56.439Z,28.40
2022-08-05T19:38:43.705Z,28.40
2022-08-05T19:42:03.373Z,28.30
2022-08-05T19:44:44.999Z,28.30
2022-08-05T19:47:37.605Z,28.20
2022-08-05T19:50:29.149Z,28.10
2022-08-05T19:54:03.577Z,28.00
2022-08-05T19:56:32.734Z,28.00
2022-08-05T19:59:56.536Z,27.90
2022-08-05T20:02:35.943Z,27.80
2022-08-05T20:05:26.461Z,27.80
2022-08-05T20:08:33.012Z,27.70
2022-08-05T20:11:24.107Z,27.70
2022-08-05T20:14:14.420Z,27.60
2022-08-05T20:17:09.929Z,27.60
2022-08-05T20:20:07.564Z,27.50
2022-08-05T20:22:58.778Z,27.50
2022-08-05T20:25:48.569Z,27.40
2022-08-05T20:28:43.239Z,27.40
2022-08-05T20:31:43.086Z,27.40
2022-08-05T20:34:42.065Z,27.30
2022-08-05T20:38:06.806Z,27.20
2022-08-05T20:40:43.282Z,27.20
2022-08-05T20:43:59.032Z,27.10
2022-08-05T20:46:44.963Z,27.10
2022-08-05T20:49:39.306Z,27.00
2022-08-05T20:52:29.422Z,26.90
2022-08-05T20:55:56.661Z,26.90
2022-08-05T20:58:29.798Z,26.80
2022-08-05T21:01:19.397Z,26.80
2022-08-05T21:04:27.520Z,26.70
2022-08-05T21:07:17.093Z,26.60
2022-08-05T21:10:09.352Z,26.60
2022-08-05T21:13:10.211Z,26.50
2022-08-05T21:16:03.983Z,26.50
2022-08-05T21:18:53.459Z,26.40
2022-08-05T21:21:51.146Z,26.40
2022-08-05T21:24:40.732Z,26.30
2022-08-05T21:27:38.835Z,26.20
2022-08-05T21:30:29.901Z,26.20
2022-08-05T21:33:22.409Z,26.20
2022-08-05T21:36:14.085Z,26.10
2022-08-05T21:39:26.287Z,26.00
2022-08-05T21:42:31.063Z,25.90
2022-08-05T21:45:51.667Z,25.90
2022-08-05T21:48:37.338Z,25.80
2022-08-05T21:52:15.821Z,25.80
2022-08-05T21:54:40.478Z,25.80
2022-08-05T21:57:32.615Z,25.70
2022-08-05T22:00:23.427Z,25.60
2022-08-05T22:03:15.224Z,25.60
2022-08-05T22:06:08.276Z,25.50
2022-08-05T22:08:57.981Z,25.50
2022-08-05T22:11:50.077Z,25.50
2022-08-05T22:14:39.475Z,25.50
2022-08-05T22:17:32.633Z,25.40
2022-08-05T22:20:29.402Z,25.40
2022-08-05T22:24:00.847Z,25.40
2022-08-05T22:27:06.723Z,25.30
2022-08-05T22:29:56.432Z,25.30
2022-08-05T22:32:47.394Z,25.20
2022-08-05T22:35:48.771Z,25.20
2022-08-05T22:38:39.788Z,25.20
2022-08-05T22:42:10.932Z,25.10
2022-08-05T22:44:48.390Z,25.10
2022-08-05T22:47:49.812Z,25.00
2022-08-05T22:50:46.145Z,24.90
2022-08-05T22:53:49.957Z,24.80
2022-08-05T22:56:39.974Z,24.70
2022-08-05T22:59:43.582Z,24.60
2022-08-05T23:02:46.486Z,24.60
2022-08-05T23:05:36.499Z,24.50
2022-08-05T23:08:28.358Z,24.40
2022-08-05T23:11:19.183Z,24.40
2022-08-05T23:14:08.583Z,24.30
2022-08-05T23:17:18.719Z,24.20
2022-08-05T23:20:17.447Z,24.10
2022-08-05T23:23:08.979Z,24.00
2022-08-05T23:25:58.456Z,23.90
2022-08-05T23:28:50.570Z,23.80
2022-08-05T23:31:39.995Z,23.70
2022-08-05T23:34:29.533Z,23.60
2022-08-05T23:37:19.108Z,23.60
2022-08-05T23:40:10.254Z,23.50
2022-08-05T23:43:01.083Z,23.50
2022-08-05T23:46:02.515Z,23.50
2022-08-05T23:49:00.257Z,23.50
2022-08-05T23:52:08.817Z,23.40
2022-08-05T23:55:00.810Z,23.40
2022-08-05T23:57:52.744Z,23.30
